Amsden, Ohio
Current Conditions -  °F | °C
As of 8:32 AM on Sunday 21 Dec 2014 (Local Time) from KFDY Reporting Station
Haze Haze  
Wind Chill: 24°   Ceiling: 1700
Heat Index: 24°   Visibility: 2mi
Dew Point: 21°   Wind: 0mph
Humidity: 88%   Direction: NA
Pressure: 30.3"   Gusts: NA
Location:  41.22°N, 83.33°W
Report Text: KFDY 211332Z AUTO 00000KT 2SM BR BKN017 M04/M06 A3030 RMK AO2 T10441061
Loading
Personal Weather Stations






























Interactive Weather Map New forecast layout! Learn more

10-Day Weather Forecast

Advertisements
Track Severe Weather on mobile